sensor_id;sensor_type;location;lat;lon;timestamp;pressure;altitude;pressure_sealevel;temperature;humidity
3160;BME280;1591;51.486;7.146;2022-09-20T00:01:06;71570.81;;;10.75;100.00
3160;BME280;1591;51.486;7.146;2022-09-20T00:03:35;71577.28;;;10.73;100.00
3160;BME280;1591;51.486;7.146;2022-09-20T00:06:06;71564.47;;;10.69;100.00
3160;BME280;1591;51.486;7.146;2022-09-20T00:08:34;71572.81;;;10.72;100.00
3160;BME280;1591;51.486;7.146;2022-09-20T00:11:02;71572.22;;;10.71;100.00
3160;BME280;1591;51.486;7.146;2022-09-20T00:13:29;71558.59;;;10.71;100.00
3160;BME280;1591;51.486;7.146;2022-09-20T00:15:57;71585.28;;;10.71;100.00
3160;BME280;1591;51.486;7.146;2022-09-20T00:18:24;71600.75;;;10.82;100.00
3160;BME280;1591;51.486;7.146;2022-09-20T00:20:52;71563.63;;;10.73;100.00
3160;BME280;1591;51.486;7.146;2022-09-20T00:23:23;71560.56;;;10.68;100.00
3160;BME280;1591;51.486;7.146;2022-09-20T00:25:55;71577.38;;;10.66;100.00
3160;BME280;1591;51.486;7.146;2022-09-20T00:28:23;71562.41;;;10.63;100.00
3160;BME280;1591;51.486;7.146;2022-09-20T00:30:52;71550.78;;;10.60;100.00
3160;BME280;1591;51.486;7.146;2022-09-20T00:33:19;71505.94;;;10.59;100.00
3160;BME280;1591;51.486;7.146;2022-09-20T00:35:47;71504.94;;;10.60;100.00
3160;BME280;1591;51.486;7.146;2022-09-20T00:38:14;71577.69;;;10.71;100.00
3160;BME280;1591;51.486;7.146;2022-09-20T00:40:43;71590.25;;;10.80;100.00
3160;BME280;1591;51.486;7.146;2022-09-20T00:43:13;71523.59;;;10.88;100.00
3160;BME280;1591;51.486;7.146;2022-09-20T00:45:42;71600.25;;;11.00;100.00
3160;BME280;1591;51.486;7.146;2022-09-20T00:48:16;71634.22;;;11.11;100.00
3160;BME280;1591;51.486;7.146;2022-09-20T00:50:51;71561.06;;;11.11;100.00
3160;BME280;1591;51.486;7.146;2022-09-20T00:53:25;71609.22;;;11.13;100.00
3160;BME280;1591;51.486;7.146;2022-09-20T00:56:00;71614.84;;;11.15;100.00
3160;BME280;1591;51.486;7.146;2022-09-20T00:58:33;71574.91;;;11.24;100.00
3160;BME280;1591;51.486;7.146;2022-09-20T01:01:04;71626.41;;;11.26;100.00
3160;BME280;1591;51.486;7.146;2022-09-20T01:03:33;71622.63;;;11.17;100.00
3160;BME280;1591;51.486;7.146;2022-09-20T01:06:05;71628.59;;;11.08;100.00
3160;BME280;1591;51.486;7.146;2022-09-20T01:08:34;71599.41;;;11.04;100.00
3160;BME280;1591;51.486;7.146;2022-09-20T01:11:03;71601.41;;;11.01;100.00
3160;BME280;1591;51.486;7.146;2022-09-20T01:13:30;71637.84;;;11.16;100.00
3160;BME280;1591;51.486;7.146;2022-09-20T01:15:58;71612.22;;;11.08;100.00
3160;BME280;1591;51.486;7.146;2022-09-20T01:18:27;71615.81;;;11.04;100.00
3160;BME280;1591;51.486;7.146;2022-09-20T01:20:57;71619.53;;;11.03;100.00
3160;BME280;1591;51.486;7.146;2022-09-20T01:23:47;71604.09;;;10.92;100.00
3160;BME280;1591;51.486;7.146;2022-09-20T01:26:58;71601.38;;;10.92;100.00
3160;BME280;1591;51.486;7.146;2022-09-20T01:29:51;71593.72;;;10.83;100.00
3160;BME280;1591;51.486;7.146;2022-09-20T01:32:29;71600.16;;;10.81;100.00
3160;BME280;1591;51.486;7.146;2022-09-20T01:35:01;71591.97;;;10.81;100.00
3160;BME280;1591;51.486;7.146;2022-09-20T01:37:38;71561.16;;;10.69;100.00
3160;BME280;1591;51.486;7.146;2022-09-20T01:40:17;71566.78;;;10.71;100.00
3160;BME280;1591;51.486;7.146;2022-09-20T01:42:54;71587.47;;;10.70;100.00
3160;BME280;1591;51.486;7.146;2022-09-20T01:45:28;71592.09;;;10.74;100.00
3160;BME280;1591;51.486;7.146;2022-09-20T01:48:08;71560.03;;;10.77;100.00
3160;BME280;1591;51.486;7.146;2022-09-20T01:50:55;71575.72;;;10.74;100.00
3160;BME280;1591;51.486;7.146;2022-09-20T01:54:00;71557.53;;;10.63;100.00
3160;BME280;1591;51.486;7.146;2022-09-20T01:57:40;71581.88;;;10.77;100.00
3160;BME280;1591;51.486;7.146;2022-09-20T02:00:13;71566.59;;;10.69;100.00
3160;BME280;1591;51.486;7.146;2022-09-20T02:15:53;71569.34;;;10.69;100.00
3160;BME280;1591;51.486;7.146;2022-09-20T02:18:46;71572.66;;;10.69;100.00
3160;BME280;1591;51.486;7.146;2022-09-20T02:21:25;71523.28;;;10.83;100.00
3160;BME280;1591;51.486;7.146;2022-09-20T02:24:05;71584.69;;;10.87;100.00
3160;BME280;1591;51.486;7.146;2022-09-20T02:26:43;71568.50;;;10.73;100.00
3160;BME280;1591;51.486;7.146;2022-09-20T02:29:27;71594.13;;;10.81;100.00
3160;BME280;1591;51.486;7.146;2022-09-20T02:32:20;71578.31;;;10.81;100.00
3160;BME280;1591;51.486;7.146;2022-09-20T02:35:13;71572.84;;;10.81;100.00
3160;BME280;1591;51.486;7.146;2022-09-20T02:37:59;71583.06;;;10.78;100.00
3160;BME280;1591;51.486;7.146;2022-09-20T02:40:44;71576.13;;;10.72;100.00
3160;BME280;1591;51.486;7.146;2022-09-20T02:43:24;71585.47;;;10.73;100.00
3160;BME280;1591;51.486;7.146;2022-09-20T02:46:00;71572.97;;;10.74;100.00
3160;BME280;1591;51.486;7.146;2022-09-20T02:48:35;71526.59;;;10.84;100.00
3160;BME280;1591;51.486;7.146;2022-09-20T02:51:16;71560.44;;;10.66;100.00
3160;BME280;1591;51.486;7.146;2022-09-20T02:53:50;71576.94;;;10.68;100.00
3160;BME280;1591;51.486;7.146;2022-09-20T02:56:28;71580.75;;;10.76;100.00
3160;BME280;1591;51.486;7.146;2022-09-20T02:59:04;71566.44;;;10.66;100.00
3160;BME280;1591;51.486;7.146;2022-09-20T03:01:45;71502.53;;;10.65;100.00
3160;BME280;1591;51.486;7.146;2022-09-20T03:04:34;71559.53;;;10.60;100.00
3160;BME280;1591;51.486;7.146;2022-09-20T03:07:16;71491.56;;;10.56;100.00
3160;BME280;1591;51.486;7.146;2022-09-20T03:09:55;71550.13;;;10.50;100.00
3160;BME280;1591;51.486;7.146;2022-09-20T03:12:36;71531.16;;;10.43;100.00
3160;BME280;1591;51.486;7.146;2022-09-20T03:15:19;71538.44;;;10.37;100.00
3160;BME280;1591;51.486;7.146;2022-09-20T03:18:05;71475.69;;;10.37;100.00
3160;BME280;1591;51.486;7.146;2022-09-20T03:20:42;71515.31;;;10.33;100.00
3160;BME280;1591;51.486;7.146;2022-09-20T03:23:36;71529.94;;;10.32;100.00
3160;BME280;1591;51.486;7.146;2022-09-20T03:26:22;71465.47;;;10.30;100.00
3160;BME280;1591;51.486;7.146;2022-09-20T03:29:03;71524.50;;;10.32;100.00
3160;BME280;1591;51.486;7.146;2022-09-20T03:31:47;71542.22;;;10.45;100.00
3160;BME280;1591;51.486;7.146;2022-09-20T03:34:38;71551.81;;;10.42;100.00
3160;BME280;1591;51.486;7.146;2022-09-20T03:37:24;71541.94;;;10.50;100.00
3160;BME280;1591;51.486;7.146;2022-09-20T03:40:40;71543.38;;;10.46;100.00
3160;BME280;1591;51.486;7.146;2022-09-20T03:43:25;71543.03;;;10.41;100.00
3160;BME280;1591;51.486;7.146;2022-09-20T03:46:14;71479.72;;;10.41;100.00
3160;BME280;1591;51.486;7.146;2022-09-20T03:49:04;71539.59;;;10.38;100.00
3160;BME280;1591;51.486;7.146;2022-09-20T03:51:44;71522.47;;;10.35;100.00
3160;BME280;1591;51.486;7.146;2022-09-20T03:54:53;71515.47;;;10.36;100.00
3160;BME280;1591;51.486;7.146;2022-09-20T03:57:47;71524.50;;;10.32;100.00
3160;BME280;1591;51.486;7.146;2022-09-20T04:00:34;71530.38;;;10.30;100.00
3160;BME280;1591;51.486;7.146;2022-09-20T04:03:29;71536.41;;;10.30;100.00
3160;BME280;1591;51.486;7.146;2022-09-20T04:06:34;71536.41;;;10.30;100.00
3160;BME280;1591;51.486;7.146;2022-09-20T04:09:38;71524.50;;;10.32;100.00
3160;BME280;1591;51.486;7.146;2022-09-20T04:12:17;71468.50;;;10.35;100.00
3160;BME280;1591;51.486;7.146;2022-09-20T04:14:59;71529.41;;;10.41;100.00
3160;BME280;1591;51.486;7.146;2022-09-20T04:17:41;71558.75;;;10.48;100.00
3160;BME280;1591;51.486;7.146;2022-09-20T04:20:16;71544.00;;;10.56;100.00
3160;BME280;1591;51.486;7.146;2022-09-20T04:22:50;71565.63;;;10.70;100.00
3160;BME280;1591;51.486;7.146;2022-09-20T04:25:22;71585.03;;;10.75;100.00
3160;BME280;1591;51.486;7.146;2022-09-20T04:27:57;71600.00;;;10.79;100.00
3160;BME280;1591;51.486;7.146;2022-09-20T04:30:32;71599.78;;;10.93;100.00
3160;BME280;1591;51.486;7.146;2022-09-20T04:33:10;71547.78;;;11.00;100.00
3160;BME280;1591;51.486;7.146;2022-09-20T04:35:46;71552.97;;;11.04;100.00
3160;BME280;1591;51.486;7.146;2022-09-20T04:38:35;71632.97;;;11.17;100.00
3160;BME280;1591;51.486;7.146;2022-09-20T04:41:30;71641.47;;;11.22;100.00
3160;BME280;1591;51.486;7.146;2022-09-20T04:44:25;71630.28;;;11.27;100.00
3160;BME280;1591;51.486;7.146;2022-09-20T04:51:04;71649.88;;;11.34;100.00
3160;BME280;1591;51.486;7.146;2022-09-20T04:57:17;71647.59;;;11.42;100.00
3160;BME280;1591;51.486;7.146;2022-09-20T05:00:04;71663.16;;;11.46;100.00
3160;BME280;1591;51.486;7.146;2022-09-20T05:03:24;71597.88;;;11.51;100.00
3160;BME280;1591;51.486;7.146;2022-09-20T05:06:40;71663.22;;;11.55;100.00
3160;BME280;1591;51.486;7.146;2022-09-20T05:12:49;71650.06;;;11.46;100.00
3160;BME280;1591;51.486;7.146;2022-09-20T05:15:36;71627.69;;;11.29;100.00
3160;BME280;1591;51.486;7.146;2022-09-20T05:18:57;71583.00;;;11.31;100.00
3160;BME280;1591;51.486;7.146;2022-09-20T05:21:56;71636.38;;;11.37;100.00
3160;BME280;1591;51.486;7.146;2022-09-20T05:27:46;71664.22;;;11.54;100.00
3160;BME280;1591;51.486;7.146;2022-09-20T05:30:27;71657.63;;;11.62;100.00
3160;BME280;1591;51.486;7.146;2022-09-20T05:33:09;71667.41;;;11.61;100.00
3160;BME280;1591;51.486;7.146;2022-09-20T05:35:46;71675.75;;;11.64;100.00
3160;BME280;1591;51.486;7.146;2022-09-20T05:38:26;71664.66;;;11.61;100.00
3160;BME280;1591;51.486;7.146;2022-09-20T05:41:07;71604.38;;;11.59;100.00
3160;BME280;1591;51.486;7.146;2022-09-20T05:43:49;71663.53;;;11.60;100.00
3160;BME280;1591;51.486;7.146;2022-09-20T05:46:33;71697.97;;;11.69;100.00
3160;BME280;1591;51.486;7.146;2022-09-20T05:49:15;71679.41;;;11.69;100.00
3160;BME280;1591;51.486;7.146;2022-09-20T05:52:01;71683.34;;;11.80;100.00
3160;BME280;1591;51.486;7.146;2022-09-20T05:55:18;71690.25;;;11.86;100.00
3160;BME280;1591;51.486;7.146;2022-09-20T05:58:07;71712.13;;;11.86;100.00
3160;BME280;1591;51.486;7.146;2022-09-20T06:00:43;71684.06;;;11.83;100.00
3160;BME280;1591;51.486;7.146;2022-09-20T06:03:19;71715.31;;;11.84;100.00
3160;BME280;1591;51.486;7.146;2022-09-20T06:06:01;71687.38;;;11.83;100.00
3160;BME280;1591;51.486;7.146;2022-09-20T06:08:46;71688.22;;;11.79;100.00
3160;BME280;1591;51.486;7.146;2022-09-20T06:11:58;71688.94;;;11.73;100.00
3160;BME280;1591;51.486;7.146;2022-09-20T06:14:39;71677.25;;;11.70;100.00
3160;BME280;1591;51.486;7.146;2022-09-20T06:17:23;71681.06;;;11.61;100.00
3160;BME280;1591;51.486;7.146;2022-09-20T06:20:03;71613.72;;;11.60;100.00
3160;BME280;1591;51.486;7.146;2022-09-20T06:22:40;71679.56;;;11.72;100.00
3160;BME280;1591;51.486;7.146;2022-09-20T06:25:17;71645.50;;;11.87;100.00
3160;BME280;1591;51.486;7.146;2022-09-20T06:27:54;71708.59;;;12.00;100.00
3160;BME280;1591;51.486;7.146;2022-09-20T06:30:26;71726.94;;;12.13;100.00
3160;BME280;1591;51.486;7.146;2022-09-20T06:32:58;71684.03;;;12.19;100.00
3160;BME280;1591;51.486;7.146;2022-09-20T06:35:32;71740.34;;;12.18;100.00
3160;BME280;1591;51.486;7.146;2022-09-20T06:38:18;71726.94;;;12.13;100.00
3160;BME280;1591;51.486;7.146;2022-09-20T06:41:08;71751.91;;;12.28;100.00
3160;BME280;1591;51.486;7.146;2022-09-20T06:43:58;71789.72;;;12.46;100.00
3160;BME280;1591;51.486;7.146;2022-09-20T06:46:26;71787.47;;;12.63;100.00
3160;BME280;1591;51.486;7.146;2022-09-20T06:48:54;71807.72;;;12.81;100.00
3160;BME280;1591;51.486;7.146;2022-09-20T06:51:22;71823.47;;;12.97;100.00
3160;BME280;1591;51.486;7.146;2022-09-20T06:53:50;71833.34;;;13.06;100.00
3160;BME280;1591;51.486;7.146;2022-09-20T06:56:21;71843.88;;;13.08;100.00
3160;BME280;1591;51.486;7.146;2022-09-20T06:58:50;71822.78;;;13.04;100.00
3160;BME280;1591;51.486;7.146;2022-09-20T07:01:19;71858.06;;;13.25;100.00
3160;BME280;1591;51.486;7.146;2022-09-20T07:03:46;71836.22;;;13.08;100.00
3160;BME280;1591;51.486;7.146;2022-09-20T07:06:14;71827.91;;;12.80;100.00
3160;BME280;1591;51.486;7.146;2022-09-20T07:08:44;71793.38;;;12.61;100.00
3160;BME280;1591;51.486;7.146;2022-09-20T07:11:14;71780.00;;;12.66;100.00
3160;BME280;1591;51.486;7.146;2022-09-20T07:13:42;71803.78;;;12.70;100.00
3160;BME280;1591;51.486;7.146;2022-09-20T07:16:12;71762.06;;;12.96;100.00
3160;BME280;1591;51.486;7.146;2022-09-20T07:18:41;71844.69;;;13.04;100.00
3160;BME280;1591;51.486;7.146;2022-09-20T07:21:10;71852.41;;;13.22;100.00
3160;BME280;1591;51.486;7.146;2022-09-20T07:23:37;71898.97;;;13.48;100.00
3160;BME280;1591;51.486;7.146;2022-09-20T07:26:05;71888.28;;;13.53;100.00
3160;BME280;1591;51.486;7.146;2022-09-20T07:28:34;71916.47;;;13.66;100.00
3160;BME280;1591;51.486;7.146;2022-09-20T07:31:01;71899.13;;;13.61;100.00
3160;BME280;1591;51.486;7.146;2022-09-20T07:33:28;71896.66;;;13.56;100.00
3160;BME280;1591;51.486;7.146;2022-09-20T07:35:57;71894.38;;;13.64;100.00
3160;BME280;1591;51.486;7.146;2022-09-20T07:38:24;71903.22;;;13.74;100.00
3160;BME280;1591;51.486;7.146;2022-09-20T07:40:55;71923.59;;;13.84;100.00
3160;BME280;1591;51.486;7.146;2022-09-20T07:43:22;71930.69;;;13.93;100.00
3160;BME280;1591;51.486;7.146;2022-09-20T07:45:50;71928.22;;;13.98;100.00
3160;BME280;1591;51.486;7.146;2022-09-20T07:48:19;71954.97;;;14.14;100.00
3160;BME280;1591;51.486;7.146;2022-09-20T07:50:50;71952.53;;;14.19;100.00
3160;BME280;1591;51.486;7.146;2022-09-20T07:53:20;71967.88;;;14.18;100.00
3160;BME280;1591;51.486;7.146;2022-09-20T07:56:01;71967.00;;;14.22;100.00
3160;BME280;1591;51.486;7.146;2022-09-20T07:58:31;71968.63;;;14.30;100.00
3160;BME280;1591;51.486;7.146;2022-09-20T08:01:01;71976.56;;;14.35;100.00
3160;BME280;1591;51.486;7.146;2022-09-20T08:03:28;71991.03;;;14.48;100.00
3160;BME280;1591;51.486;7.146;2022-09-20T08:05:59;72001.16;;;14.52;100.00
3160;BME280;1591;51.486;7.146;2022-09-20T08:08:31;71972.03;;;14.14;100.00
3160;BME280;1591;51.486;7.146;2022-09-20T08:11:05;71979.75;;;14.33;100.00
3160;BME280;1591;51.486;7.146;2022-09-20T08:13:35;72012.19;;;14.61;100.00
3160;BME280;1591;51.486;7.146;2022-09-20T08:16:04;72024.06;;;14.76;100.00
3160;BME280;1591;51.486;7.146;2022-09-20T08:18:33;72030.81;;;14.61;100.00
3160;BME280;1591;51.486;7.146;2022-09-20T08:21:03;71997.13;;;14.48;100.00
3160;BME280;1591;51.486;7.146;2022-09-20T08:23:35;72008.84;;;14.61;100.00
3160;BME280;1591;51.486;7.146;2022-09-20T08:26:02;72034.63;;;14.78;100.00
3160;BME280;1591;51.486;7.146;2022-09-20T08:28:30;72029.56;;;14.86;100.00
3160;BME280;1591;51.486;7.146;2022-09-20T08:31:01;72054.88;;;14.96;100.00
3160;BME280;1591;51.486;7.146;2022-09-20T08:33:29;72058.09;;;15.03;100.00
3160;BME280;1591;51.486;7.146;2022-09-20T08:35:57;72071.69;;;15.20;100.00
3160;BME280;1591;51.486;7.146;2022-09-20T08:38:24;72073.88;;;15.20;100.00
3160;BME280;1591;51.486;7.146;2022-09-20T08:40:55;72072.56;;;15.26;100.00
3160;BME280;1591;51.486;7.146;2022-09-20T08:43:26;72084.00;;;15.33;100.00
3160;BME280;1591;51.486;7.146;2022-09-20T08:45:55;72104.16;;;15.48;100.00
3160;BME280;1591;51.486;7.146;2022-09-20T08:48:28;72135.44;;;15.75;100.00
3160;BME280;1591;51.486;7.146;2022-09-20T08:50:58;72122.84;;;15.57;100.00
3160;BME280;1591;51.486;7.146;2022-09-20T08:53:26;72131.97;;;15.72;100.00
3160;BME280;1591;51.486;7.146;2022-09-20T08:55:55;72155.31;;;15.85;100.00
3160;BME280;1591;51.486;7.146;2022-09-20T08:58:24;72168.34;;;16.02;100.00
3160;BME280;1591;51.486;7.146;2022-09-20T09:00:53;72166.16;;;16.02;100.00
3160;BME280;1591;51.486;7.146;2022-09-20T09:03:25;72178.03;;;16.08;100.00
3160;BME280;1591;51.486;7.146;2022-09-20T09:05:55;72220.81;;;16.33;100.00
3160;BME280;1591;51.486;7.146;2022-09-20T09:08:26;72197.59;;;16.32;100.00
3160;BME280;1591;51.486;7.146;2022-09-20T09:10:57;72205.00;;;16.36;100.00
3160;BME280;1591;51.486;7.146;2022-09-20T09:13:29;72225.91;;;16.54;100.00
3160;BME280;1591;51.486;7.146;2022-09-20T09:16:00;72240.09;;;16.71;100.00
3160;BME280;1591;51.486;7.146;2022-09-20T09:18:32;72291.00;;;17.13;100.00
3160;BME280;1591;51.486;7.146;2022-09-20T09:21:02;72297.09;;;17.13;100.00
3160;BME280;1591;51.486;7.146;2022-09-20T09:23:39;72305.06;;;17.27;100.00
3160;BME280;1591;51.486;7.146;2022-09-20T09:26:17;72305.22;;;17.20;100.00
3160;BME280;1591;51.486;7.146;2022-09-20T09:28:46;72346.16;;;17.41;100.00
3160;BME280;1591;51.486;7.146;2022-09-20T09:31:23;72335.09;;;17.51;100.00
3160;BME280;1591;51.486;7.146;2022-09-20T09:33:51;72339.91;;;17.48;100.00
3160;BME280;1591;51.486;7.146;2022-09-20T09:36:22;72309.72;;;17.31;100.00
3160;BME280;1591;51.486;7.146;2022-09-20T09:39:15;72300.28;;;17.21;100.00
3160;BME280;1591;51.486;7.146;2022-09-20T09:41:43;72297.97;;;17.19;100.00
3160;BME280;1591;51.486;7.146;2022-09-20T09:44:21;72287.50;;;17.10;100.00
3160;BME280;1591;51.486;7.146;2022-09-20T09:46:49;72304.50;;;17.08;100.00
3160;BME280;1591;51.486;7.146;2022-09-20T09:49:21;72288.09;;;17.10;100.00
3160;BME280;1591;51.486;7.146;2022-09-20T09:52:11;72292.88;;;17.07;100.00
3160;BME280;1591;51.486;7.146;2022-09-20T09:54:42;72301.91;;;17.10;100.00
3160;BME280;1591;51.486;7.146;2022-09-20T09:57:35;72297.53;;;17.11;100.00
3160;BME280;1591;51.486;7.146;2022-09-20T10:00:10;72281.59;;;17.02;100.00
3160;BME280;1591;51.486;7.146;2022-09-20T10:03:25;72258.09;;;16.77;100.00
3160;BME280;1591;51.486;7.146;2022-09-20T10:06:10;72248.78;;;16.79;100.00
3160;BME280;1591;51.486;7.146;2022-09-20T10:08:58;72272.31;;;16.85;100.00
3160;BME280;1591;51.486;7.146;2022-09-20T10:11:38;72280.69;;;16.97;100.00
3160;BME280;1591;51.486;7.146;2022-09-20T10:14:27;72266.19;;;16.84;100.00
3160;BME280;1591;51.486;7.146;2022-09-20T10:17:17;72251.13;;;16.81;100.00
3160;BME280;1591;51.486;7.146;2022-09-20T10:20:02;72293.91;;;17.06;100.00
3160;BME280;1591;51.486;7.146;2022-09-20T10:22:41;72282.44;;;17.08;100.00
3160;BME280;1591;51.486;7.146;2022-09-20T10:25:26;72276.94;;;16.89;100.00
3160;BME280;1591;51.486;7.146;2022-09-20T10:28:14;72239.53;;;16.61;100.00
3160;BME280;1591;51.486;7.146;2022-09-20T10:30:55;72226.34;;;16.52;100.00
3160;BME280;1591;51.486;7.146;2022-09-20T10:33:38;72201.25;;;16.37;100.00
3160;BME280;1591;51.486;7.146;2022-09-20T10:36:22;72209.66;;;16.40;100.00
3160;BME280;1591;51.486;7.146;2022-09-20T10:38:58;72213.69;;;16.34;100.00
3160;BME280;1591;51.486;7.146;2022-09-20T10:41:43;72208.34;;;16.46;100.00
3160;BME280;1591;51.486;7.146;2022-09-20T10:45:10;72234.75;;;16.64;100.00
3160;BME280;1591;51.486;7.146;2022-09-20T10:47:53;72266.06;;;16.91;100.00
3160;BME280;1591;51.486;7.146;2022-09-20T10:50:35;72287.66;;;17.12;100.00
3160;BME280;1591;51.486;7.146;2022-09-20T10:53:30;72292.00;;;17.21;100.00
3160;BME280;1591;51.486;7.146;2022-09-20T10:56:13;72309.41;;;17.26;100.00
3160;BME280;1591;51.486;7.146;2022-09-20T10:59:23;72288.84;;;17.13;100.00
3160;BME280;1591;51.486;7.146;2022-09-20T11:02:14;72283.47;;;17.06;100.00
3160;BME280;1591;51.486;7.146;2022-09-20T11:05:15;72288.69;;;17.01;100.00
3160;BME280;1591;51.486;7.146;2022-09-20T11:07:55;72267.22;;;16.92;100.00
3160;BME280;1591;51.486;7.146;2022-09-20T11:10:30;72277.09;;;17.01;100.00
3160;BME280;1591;51.486;7.146;2022-09-20T11:13:04;72303.63;;;17.21;100.00
3160;BME280;1591;51.486;7.146;2022-09-20T11:15:38;72341.06;;;17.59;100.00
3160;BME280;1591;51.486;7.146;2022-09-20T11:18:13;72370.06;;;17.84;100.00
3160;BME280;1591;51.486;7.146;2022-09-20T11:20:56;72408.97;;;18.08;100.00
3160;BME280;1591;51.486;7.146;2022-09-20T11:23:35;72411.00;;;18.24;100.00
3160;BME280;1591;51.486;7.146;2022-09-20T11:26:10;72427.53;;;18.34;100.00
3160;BME280;1591;51.486;7.146;2022-09-20T11:28:45;72431.16;;;18.39;100.00
3160;BME280;1591;51.486;7.146;2022-09-20T11:31:18;72419.09;;;18.31;100.00
3160;BME280;1591;51.486;7.146;2022-09-20T11:33:52;72420.44;;;18.25;100.00
3160;BME280;1591;51.486;7.146;2022-09-20T11:36:25;72400.25;;;18.10;100.00
3160;BME280;1591;51.486;7.146;2022-09-20T11:39:01;72378.22;;;17.91;100.00
3160;BME280;1591;51.486;7.146;2022-09-20T11:41:31;72377.06;;;17.80;100.00
3160;BME280;1591;51.486;7.146;2022-09-20T11:44:05;72372.13;;;17.71;100.00
3160;BME280;1591;51.486;7.146;2022-09-20T11:46:39;72355.13;;;17.64;100.00
3160;BME280;1591;51.486;7.146;2022-09-20T11:49:20;72354.72;;;17.66;100.00
3160;BME280;1591;51.486;7.146;2022-09-20T11:52:19;72350.63;;;17.62;100.00
3160;BME280;1591;51.486;7.146;2022-09-20T11:58:01;72326.97;;;17.44;100.00
3160;BME280;1591;51.486;7.146;2022-09-20T12:00:32;72306.22;;;17.28;100.00
3160;BME280;1591;51.486;7.146;2022-09-20T12:03:01;72300.28;;;17.21;100.00
3160;BME280;1591;51.486;7.146;2022-09-20T12:05:32;72294.50;;;17.06;100.00
3160;BME280;1591;51.486;7.146;2022-09-20T12:08:06;72283.16;;;17.01;100.00
3160;BME280;1591;51.486;7.146;2022-09-20T12:10:38;72260.97;;;16.89;100.00
3160;BME280;1591;51.486;7.146;2022-09-20T12:13:15;72248.66;;;16.76;100.00
3160;BME280;1591;51.486;7.146;2022-09-20T12:15:44;72234.59;;;16.61;100.00
3160;BME280;1591;51.486;7.146;2022-09-20T12:21:17;72215.75;;;16.50;100.00
3160;BME280;1591;51.486;7.146;2022-09-20T12:24:20;72233.72;;;16.56;100.00
3160;BME280;1591;51.486;7.146;2022-09-20T12:26:54;72244.19;;;16.65;100.00
3160;BME280;1591;51.486;7.146;2022-09-20T12:29:52;72263.16;;;16.89;100.00
3160;BME280;1591;51.486;7.146;2022-09-20T12:36:15;72328.56;;;17.43;100.00
3160;BME280;1591;51.486;7.146;2022-09-20T12:38:56;72345.84;;;17.56;100.00
3160;BME280;1591;51.486;7.146;2022-09-20T12:41:27;72338.31;;;17.59;100.00
3160;BME280;1591;51.486;7.146;2022-09-20T12:43:59;72342.22;;;17.60;100.00
3160;BME280;1591;51.486;7.146;2022-09-20T12:46:37;72359.81;;;17.68;100.00
3160;BME280;1591;51.486;7.146;2022-09-20T12:49:42;72398.84;;;17.94;100.00
3160;BME280;1591;51.486;7.146;2022-09-20T12:53:01;72415.94;;;18.23;100.00
3160;BME280;1591;51.486;7.146;2022-09-20T12:55:44;72444.69;;;18.44;100.00
3160;BME280;1591;51.486;7.146;2022-09-20T12:58:48;72474.31;;;18.69;100.00
3160;BME280;1591;51.486;7.146;2022-09-20T13:01:35;72489.59;;;18.75;100.00
3160;BME280;1591;51.486;7.146;2022-09-20T13:04:53;72490.88;;;18.88;100.00
3160;BME280;1591;51.486;7.146;2022-09-20T13:07:50;72501.63;;;18.93;100.00
3160;BME280;1591;51.486;7.146;2022-09-20T13:10:33;72499.75;;;18.89;100.00
3160;BME280;1591;51.486;7.146;2022-09-20T13:13:32;72473.28;;;18.71;100.00
3160;BME280;1591;51.486;7.146;2022-09-20T13:16:15;72454.88;;;18.57;100.00
3160;BME280;1591;51.486;7.146;2022-09-20T13:18:57;72461.53;;;18.58;100.00
3160;BME280;1591;51.486;7.146;2022-09-20T13:21:30;72461.53;;;18.58;100.00
3160;BME280;1591;51.486;7.146;2022-09-20T13:23:58;72443.97;;;18.50;100.00
3160;BME280;1591;51.486;7.146;2022-09-20T13:26:31;72421.56;;;18.36;100.00
3160;BME280;1591;51.486;7.146;2022-09-20T13:29:02;72428.28;;;18.37;100.00
3160;BME280;1591;51.486;7.146;2022-09-20T13:31:33;72463.75;;;18.58;100.00
3160;BME280;1591;51.486;7.146;2022-09-20T13:34:19;72477.38;;;18.74;100.00
3160;BME280;1591;51.486;7.146;2022-09-20T13:36:49;72483.75;;;18.80;100.00
3160;BME280;1591;51.486;7.146;2022-09-20T13:39:39;72452.25;;;18.50;100.00
3160;BME280;1591;51.486;7.146;2022-09-20T13:42:12;72441.78;;;18.41;100.00
3160;BME280;1591;51.486;7.146;2022-09-20T13:44:44;72423.63;;;18.33;100.00
3160;BME280;1591;51.486;7.146;2022-09-20T13:47:26;72403.75;;;18.13;100.00
3160;BME280;1591;51.486;7.146;2022-09-20T13:49:59;72386.19;;;17.95;100.00
3160;BME280;1591;51.486;7.146;2022-09-20T13:52:29;72375.16;;;17.86;100.00
3160;BME280;1591;51.486;7.146;2022-09-20T13:54:57;72362.25;;;17.72;100.00
3160;BME280;1591;51.486;7.146;2022-09-20T13:57:27;72337.56;;;17.56;100.00
3160;BME280;1591;51.486;7.146;2022-09-20T13:59:55;72333.78;;;17.47;100.00
3160;BME280;1591;51.486;7.146;2022-09-20T14:02:28;72323.22;;;17.36;100.00
3160;BME280;1591;51.486;7.146;2022-09-20T14:04:59;72314.78;;;17.33;100.00
3160;BME280;1591;51.486;7.146;2022-09-20T14:07:28;72288.09;;;17.10;100.00
3160;BME280;1591;51.486;7.146;2022-09-20T14:09:56;72298.56;;;17.10;100.00
3160;BME280;1591;51.486;7.146;2022-09-20T14:12:25;72305.38;;;17.13;100.00
3160;BME280;1591;51.486;7.146;2022-09-20T14:14:53;72294.06;;;17.08;100.00
3160;BME280;1591;51.486;7.146;2022-09-20T14:17:34;72297.09;;;17.13;100.00
3160;BME280;1591;51.486;7.146;2022-09-20T14:20:02;72292.16;;;17.14;100.00
3160;BME280;1591;51.486;7.146;2022-09-20T14:22:30;72298.09;;;17.12;100.00
3160;BME280;1591;51.486;7.146;2022-09-20T14:25:01;72292.88;;;17.17;100.00
3160;BME280;1591;51.486;7.146;2022-09-20T14:27:30;72301.88;;;17.20;100.00
3160;BME280;1591;51.486;7.146;2022-09-20T14:29:58;72293.59;;;17.20;100.00
3160;BME280;1591;51.486;7.146;2022-09-20T14:32:45;72293.19;;;17.12;100.00
3160;BME280;1591;51.486;7.146;2022-09-20T14:35:19;72272.88;;;17.04;100.00
3160;BME280;1591;51.486;7.146;2022-09-20T14:37:50;72281.59;;;17.02;100.00
3160;BME280;1591;51.486;7.146;2022-09-20T14:40:25;72280.84;;;16.99;100.00
3160;BME280;1591;51.486;7.146;2022-09-20T14:42:56;72292.59;;;17.12;100.00
3160;BME280;1591;51.486;7.146;2022-09-20T14:45:35;72312.47;;;17.22;100.00
3160;BME280;1591;51.486;7.146;2022-09-20T14:48:36;72317.81;;;17.38;100.00